Time;durP1;ratioP1;P1;durP2;ratioP2;P2;SDS_P1;SDS_P2;PMS_P1;PMS_P2;Temp;Humidity;BMP_temperature;BMP_pressure;BME280_temperature;BME280_humidity;BME280_pressure;Samples;Min_cycle;Max_cycle;Signal;HPM_P1;HPM_P2
2022/12/15 00:39:35;;;;;;;22.63;12.60;;;-3.60;99.90;;;;;;4991456;28;20065;-65
2022/12/15 00:42:01;;;;;;;22.85;12.93;;;-3.60;99.90;;;;;;4991614;28;20042;-64
2022/12/15 00:44:27;;;;;;;22.73;12.55;;;-3.60;99.90;;;;;;5024577;28;20046;-65
2022/12/15 00:46:55;;;;;;;20.88;12.55;;;-3.70;99.90;;;;;;4992866;28;20121;-65
2022/12/15 01:22:31;;;;;;;21.95;11.20;;;-4.20;99.90;;;;;;4992254;28;20453;-64
2022/12/15 01:24:56;;;;;;;17.90;11.52;;;-4.10;99.90;;;;;;4991068;28;20046;-64
2022/12/15 01:27:22;;;;;;;23.20;11.77;;;-4.20;99.90;;;;;;5023885;28;20426;-64
2022/12/15 01:29:48;;;;;;;19.45;11.02;;;-4.20;99.90;;;;;;4992121;28;20042;-64
2022/12/15 01:32:14;;;;;;;20.70;11.05;;;-4.20;99.90;;;;;;4992352;28;20537;-64
2022/12/15 01:34:39;;;;;;;21.33;10.60;;;-4.30;99.90;;;;;;4991008;28;20046;-64
2022/12/15 01:37:05;;;;;;;23.13;10.98;;;-4.30;99.90;;;;;;4990512;28;20478;-64
2022/12/15 01:40:43;;;;;;;17.63;10.63;;;-4.20;99.90;;;;;;4992175;28;20050;-64
2022/12/15 01:42:17;;;;;;;20.80;12.18;;;-4.10;99.90;;;;;;4991921;28;20122;-64
2022/12/15 01:44:48;;;;;;;19.60;11.57;;;-4.10;99.90;;;;;;5022959;28;20038;-64
2022/12/15 01:47:15;;;;;;;21.67;11.23;;;-4.10;99.90;;;;;;4992011;28;20372;-64
2022/12/15 01:49:42;;;;;;;21.13;11.52;;;-4.10;99.90;;;;;;4990740;28;20046;-64
2022/12/15 01:52:09;;;;;;;22.77;11.52;;;-4.00;99.90;;;;;;5006615;28;20112;-64
2022/12/15 01:54:42;;;;;;;19.25;10.45;;;-4.00;99.90;;;;;;4991714;28;20034;-64
2022/12/15 01:57:17;;;;;;;16.80;9.95;;;-4.00;99.90;;;;;;4991732;28;20046;-64
2022/12/15 01:59:52;;;;;;;17.73;9.18;;;-4.00;99.90;;;;;;4991282;28;20041;-64
2022/12/15 02:02:22;;;;;;;16.23;8.80;;;-4.00;99.90;;;;;;4990320;28;20042;-64
2022/12/15 02:04:50;;;;;;;15.48;9.35;;;-4.10;99.90;;;;;;4990163;28;20042;-64
2022/12/15 02:07:17;;;;;;;16.38;9.52;;;-4.10;99.90;;;;;;4990413;28;20053;-64
2022/12/15 02:09:45;;;;;;;16.83;9.20;;;-4.10;99.90;;;;;;4991463;28;20046;-64
2022/12/15 02:12:42;;;;;;;17.60;9.15;;;-4.10;99.90;;;;;;4990899;28;20042;-64
2022/12/15 02:15:14;;;;;;;15.77;8.70;;;-4.10;99.90;;;;;;4990044;28;20125;-64
2022/12/15 02:18:13;;;;;;;17.88;8.70;;;-4.10;99.90;;;;;;4989909;28;20050;-64
2022/12/15 02:21:03;;;;;;;16.55;8.60;;;-4.00;99.90;;;;;;4991557;28;20069;-64
2022/12/15 02:23:56;;;;;;;14.88;8.43;;;-3.90;99.90;;;;;;4989845;28;20046;-64
2022/12/15 02:26:58;;;;;;;20.75;10.07;;;-3.80;99.90;;;;;;4991124;28;20092;-64
2022/12/15 02:29:56;;;;;;;13.38;7.95;;;-3.80;99.90;;;;;;5023016;28;20490;-64
2022/12/15 02:32:28;;;;;;;13.52;7.72;;;-3.70;99.90;;;;;;4991356;28;20046;-64
2022/12/15 02:35:01;;;;;;;15.18;8.43;;;-3.70;99.90;;;;;;4989888;28;20042;-64
2022/12/15 02:37:39;;;;;;;10.68;6.97;;;-3.70;99.90;;;;;;4989472;28;20526;-64
2022/12/15 02:40:07;;;;;;;13.75;7.43;;;-3.70;99.90;;;;;;4989571;28;20046;-64
2022/12/15 02:42:37;;;;;;;13.38;7.22;;;-3.80;99.90;;;;;;4989431;28;20096;-64
2022/12/15 02:45:13;;;;;;;9.63;5.57;;;-3.70;99.90;;;;;;4989975;28;20046;-64
2022/12/15 02:48:01;;;;;;;15.25;6.95;;;-3.70;99.90;;;;;;4989605;28;20050;-64
2022/12/15 02:51:10;;;;;;;14.30;7.07;;;-3.70;99.90;;;;;;4991193;28;20054;-64
2022/12/15 02:54:15;;;;;;;12.45;7.50;;;-3.60;99.90;;;;;;5022413;28;20143;-64
2022/12/15 02:57:04;;;;;;;19.08;8.85;;;-3.50;99.90;;;;;;4989172;28;20064;-64
2022/12/15 02:59:54;;;;;;;15.23;8.48;;;-3.40;99.90;;;;;;4990805;28;20055;-64
2022/12/15 03:02:23;;;;;;;13.70;8.85;;;-3.30;99.90;;;;;;4989350;28;20041;-64
2022/12/15 03:04:49;;;;;;;16.20;8.70;;;-3.20;99.90;;;;;;4989691;28;20044;-64
2022/12/15 03:07:15;;;;;;;19.85;9.65;;;-3.10;99.90;;;;;;4990896;28;20046;-64
2022/12/15 03:09:41;;;;;;;18.65;10.25;;;-3.00;99.90;;;;;;4989326;28;20473;-64
2022/12/15 03:12:07;;;;;;;21.75;10.32;;;-2.90;99.90;;;;;;4990326;28;20038;-64
2022/12/15 03:14:33;;;;;;;22.10;10.05;;;-2.80;99.90;;;;;;5005622;28;20042;-64
2022/12/15 03:16:59;;;;;;;16.17;9.27;;;-2.70;99.90;;;;;;4989293;28;20054;-64
2022/12/15 03:19:25;;;;;;;18.73;9.65;;;-2.60;99.90;;;;;;4988109;28;20046;-64
2022/12/15 03:21:53;;;;;;;17.52;9.77;;;-2.50;99.90;;;;;;4988503;28;20058;-64
2022/12/15 03:24:20;;;;;;;16.10;9.13;;;-2.50;99.90;;;;;;5005602;28;20053;-64
2022/12/15 03:26:48;;;;;;;15.98;9.45;;;-2.50;99.90;;;;;;5004822;28;20097;-64
2022/12/15 03:29:17;;;;;;;18.08;9.85;;;-2.50;99.90;;;;;;4989876;28;20209;-64
2022/12/15 03:31:44;;;;;;;15.57;8.95;;;-2.50;99.90;;;;;;4973116;28;20042;-64
2022/12/15 03:34:14;;;;;;;11.50;7.65;;;-2.50;99.90;;;;;;4990174;28;20038;-64
2022/12/15 03:36:40;;;;;;;12.05;7.63;;;-2.60;99.90;;;;;;4990046;28;20474;-64
2022/12/15 03:39:07;;;;;;;11.20;7.47;;;-2.60;99.90;;;;;;4988380;28;20250;-64
2022/12/15 03:41:37;;;;;;;16.58;7.57;;;-2.70;99.90;;;;;;4989945;28;20042;-64
2022/12/15 03:44:12;;;;;;;13.68;7.50;;;-2.70;99.90;;;;;;4990151;28;20042;-64
2022/12/15 03:46:41;;;;;;;12.82;7.95;;;-2.70;99.90;;;;;;5004880;28;20566;-64
2022/12/15 03:49:07;;;;;;;12.18;7.22;;;-2.80;99.90;;;;;;5005059;28;20498;-64
2022/12/15 03:51:33;;;;;;;12.70;7.20;;;-2.90;99.90;;;;;;4988658;28;20050;-64
2022/12/15 03:54:02;;;;;;;11.77;7.22;;;-3.00;99.90;;;;;;4988598;28;20042;-64
2022/12/15 03:56:29;;;;;;;13.52;8.23;;;-3.00;99.90;;;;;;4988676;28;20136;-64
2022/12/15 03:58:57;;;;;;;15.45;7.82;;;-3.10;99.90;;;;;;4988583;28;20570;-64
2022/12/15 04:01:44;;;;;;;13.30;7.35;;;-3.20;99.90;;;;;;5005018;28;20042;-64
2022/12/15 04:04:13;;;;;;;11.10;7.00;;;-3.30;99.90;;;;;;4972620;28;20070;-64
2022/12/15 04:06:40;;;;;;;11.63;7.25;;;-3.30;99.90;;;;;;4990285;28;20085;-64
2022/12/15 04:09:08;;;;;;;16.30;6.68;;;-3.30;99.90;;;;;;4972071;28;20391;-64
2022/12/15 04:11:45;;;;;;;15.98;8.43;;;-3.40;99.90;;;;;;5019214;28;20114;-64
2022/12/15 04:14:12;;;;;;;17.45;9.73;;;-3.30;99.90;;;;;;4991419;28;20426;-64
2022/12/15 04:16:39;;;;;;;20.33;10.48;;;-3.20;99.90;;;;;;4993405;28;20042;-64
2022/12/15 04:21:50;;;;;;;22.10;12.82;;;-3.00;99.90;;;;;;4993007;28;20054;-64
2022/12/15 05:33:13;;;;;;;28.63;12.18;;;-2.50;99.90;;;;;;4992101;28;20054;-64
2022/12/15 05:35:38;;;;;;;23.33;11.68;;;-2.40;99.90;;;;;;4990004;28;20038;-64
2022/12/15 05:38:04;;;;;;;19.80;11.90;;;-2.40;99.90;;;;;;4990688;28;20148;-64
2022/12/15 05:40:30;;;;;;;21.65;11.48;;;-2.40;99.90;;;;;;5006857;28;20379;-64
2022/12/15 05:42:58;;;;;;;21.10;12.45;;;-2.40;99.90;;;;;;4990380;28;20050;-64
2022/12/15 05:45:24;;;;;;;22.92;11.52;;;-2.30;99.90;;;;;;5023193;28;20169;-64
2022/12/15 05:47:51;;;;;;;24.85;12.70;;;-2.30;99.90;;;;;;4990168;28;20132;-64
2022/12/15 05:50:17;;;;;;;18.48;11.43;;;-2.20;99.90;;;;;;4990120;28;20042;-64
2022/12/15 05:52:43;;;;;;;19.00;11.35;;;-2.20;99.90;;;;;;4990046;28;20419;-64
2022/12/15 05:55:09;;;;;;;18.55;11.35;;;-2.20;99.90;;;;;;4990496;28;20094;-64
2022/12/15 05:57:35;;;;;;;19.30;11.02;;;-2.20;99.90;;;;;;4991403;28;20184;-64
2022/12/15 06:00:01;;;;;;;20.80;10.15;;;-2.20;99.90;;;;;;5023163;28;20049;-64
2022/12/15 06:02:30;;;;;;;20.50;9.93;;;-2.20;99.90;;;;;;4990139;28;20046;-64
2022/12/15 06:04:56;;;;;;;18.77;9.88;;;-2.20;99.90;;;;;;5005748;28;20042;-64
2022/12/15 06:07:22;;;;;;;18.20;10.77;;;-2.20;99.90;;;;;;4991369;28;20100;-64
2022/12/15 06:09:48;;;;;;;18.77;11.93;;;-2.20;99.90;;;;;;4991267;28;20030;-64
2022/12/15 06:12:14;;;;;;;20.08;11.02;;;-2.10;99.90;;;;;;4989679;28;20053;-64
2022/12/15 06:14:39;;;;;;;17.67;10.77;;;-2.10;99.90;;;;;;4990994;28;20034;-64
2022/12/15 06:17:05;;;;;;;22.52;12.32;;;-2.10;99.90;;;;;;4991213;28;20046;-64
2022/12/15 06:19:31;;;;;;;20.60;11.20;;;-2.00;99.90;;;;;;4990323;28;20121;-64
2022/12/15 06:21:57;;;;;;;29.35;13.63;;;-1.90;99.90;;;;;;4990769;28;20042;-64
2022/12/15 06:24:23;;;;;;;20.80;11.55;;;-1.90;99.90;;;;;;4991144;28;20186;-64
2022/12/15 06:26:49;;;;;;;21.50;12.30;;;-1.70;99.90;;;;;;4990998;28;20042;-64
2022/12/15 06:29:15;;;;;;;20.55;10.93;;;-1.70;99.90;;;;;;4991055;28;20081;-64
2022/12/15 06:31:41;;;;;;;21.15;11.35;;;-1.60;99.90;;;;;;4990822;28;20356;-64
2022/12/15 06:34:12;;;;;;;20.55;11.68;;;-1.50;99.90;;;;;;4988949;28;20050;-64
2022/12/15 06:36:38;;;;;;;23.58;12.70;;;-1.50;99.90;;;;;;4989734;28;20137;-64
2022/12/15 06:39:08;;;;;;;21.08;12.10;;;-1.40;99.90;;;;;;4989248;28;20050;-64
2022/12/15 06:41:33;;;;;;;22.02;12.07;;;-1.30;99.90;;;;;;5022242;28;20394;-64
2022/12/15 06:44:00;;;;;;;21.52;12.38;;;-1.30;99.90;;;;;;5022016;28;20042;-64
2022/12/15 06:46:27;;;;;;;19.02;11.07;;;-1.20;99.90;;;;;;4990754;28;20030;-64
2022/12/15 06:48:53;;;;;;;22.88;13.07;;;-1.20;99.90;;;;;;4988631;28;20046;-64
2022/12/15 06:51:19;;;;;;;20.15;12.25;;;-1.20;99.90;;;;;;5022094;28;20057;-64
2022/12/15 06:53:47;;;;;;;23.52;12.05;;;-1.20;99.90;;;;;;4990618;28;20046;-64
2022/12/15 06:56:22;;;;;;;51.90;24.55;;;-1.10;99.90;;;;;;4989023;28;20050;-64
2022/12/15 06:58:49;;;;;;;25.05;13.00;;;-1.10;99.90;;;;;;4990546;28;20480;-64
2022/12/15 07:01:16;;;;;;;20.30;11.73;;;-1.10;99.90;;;;;;4990396;28;20522;-64
2022/12/15 07:03:42;;;;;;;18.60;12.35;;;-1.10;99.90;;;;;;4988496;28;20049;-64
2022/12/15 07:06:10;;;;;;;22.80;12.23;;;-1.10;99.90;;;;;;4990585;28;20038;-64
2022/12/15 07:08:36;;;;;;;20.65;10.77;;;-1.10;99.90;;;;;;4990183;28;20046;-64
2022/12/15 07:11:03;;;;;;;17.05;11.23;;;-1.20;99.90;;;;;;4988952;28;20108;-64
2022/12/15 07:13:29;;;;;;;17.52;10.82;;;-1.20;99.90;;;;;;4990220;28;20045;-64
2022/12/15 07:16:01;;;;;;;19.10;9.98;;;-1.10;99.90;;;;;;5021886;28;20046;-65
2022/12/15 07:18:28;;;;;;;19.25;10.15;;;-1.20;99.90;;;;;;4988562;28;20053;-64
2022/12/15 07:20:54;;;;;;;20.80;10.02;;;-1.20;99.90;;;;;;4990022;28;20070;-64
2022/12/15 07:23:20;;;;;;;16.33;9.48;;;-1.20;99.90;;;;;;4990577;28;20045;-64
2022/12/15 07:25:46;;;;;;;17.05;9.63;;;-1.20;99.90;;;;;;5021484;28;20038;-64
2022/12/15 07:28:12;;;;;;;16.20;9.57;;;-1.20;99.90;;;;;;4990470;28;20441;-64
2022/12/15 07:30:38;;;;;;;14.30;8.82;;;-1.20;99.90;;;;;;4989047;28;20467;-65
2022/12/15 07:33:04;;;;;;;14.52;9.32;;;-1.20;99.90;;;;;;4987825;28;20082;-64
2022/12/15 07:35:31;;;;;;;17.42;10.65;;;-1.20;99.90;;;;;;4988109;28;20054;-64
2022/12/15 07:37:57;;;;;;;17.33;8.85;;;-1.30;99.90;;;;;;5021246;28;20058;-63
2022/12/15 07:40:23;;;;;;;18.05;9.30;;;-1.30;99.90;;;;;;4988118;28;20124;-63
2022/12/15 07:42:49;;;;;;;17.48;9.77;;;-1.30;99.90;;;;;;4989403;28;20078;-63
2022/12/15 07:45:14;;;;;;;18.95;9.10;;;-1.40;99.90;;;;;;4990344;28;20043;-64
2022/12/15 07:47:40;;;;;;;18.10;8.60;;;-1.40;99.90;;;;;;4990039;28;20519;-64
2022/12/15 07:50:07;;;;;;;17.67;9.02;;;-1.40;99.90;;;;;;5025270;28;20158;-64
2022/12/15 07:52:33;;;;;;;16.15;9.38;;;-1.40;99.90;;;;;;4992510;28;20042;-64
2022/12/15 07:54:59;;;;;;;16.08;8.90;;;-1.40;99.90;;;;;;4993562;28;20050;-63
2022/12/15 07:57:25;;;;;;;15.82;8.90;;;-1.40;99.90;;;;;;4993444;28;20050;-64
2022/12/15 07:59:50;;;;;;;16.02;9.80;;;-1.40;99.90;;;;;;4992406;28;20125;-63
2022/12/15 08:02:17;;;;;;;17.05;9.38;;;-1.40;99.90;;;;;;4991736;28;20096;-63
2022/12/15 08:04:43;;;;;;;16.38;8.77;;;-1.50;99.90;;;;;;4991868;28;20035;-63
2022/12/15 08:07:09;;;;;;;16.88;10.10;;;-1.40;99.90;;;;;;4993309;28;20031;-64
2022/12/15 08:09:36;;;;;;;16.27;8.73;;;-1.40;99.90;;;;;;4993200;28;20137;-63
2022/12/15 08:12:02;;;;;;;17.60;8.65;;;-1.40;99.90;;;;;;5024924;28;20076;-63
2022/12/15 08:14:28;;;;;;;12.40;8.77;;;-1.30;99.90;;;;;;4992915;28;20121;-63
2022/12/15 08:16:54;;;;;;;16.08;8.95;;;-1.20;99.90;;;;;;4993164;28;20138;-63
2022/12/15 08:19:20;;;;;;;15.55;10.27;;;-1.10;99.90;;;;;;4991809;28;20050;-64
2022/12/15 08:21:47;;;;;;;15.25;9.60;;;-1.00;99.90;;;;;;5024535;28;20044;-63
2022/12/15 08:24:14;;;;;;;17.20;9.88;;;-0.80;99.90;;;;;;4993129;28;20042;-63
2022/12/15 08:26:41;;;;;;;16.88;9.40;;;-0.50;99.90;;;;;;4992805;28;20104;-63
2022/12/15 08:29:10;;;;;;;17.73;9.50;;;-0.30;99.90;;;;;;4992631;28;20053;-63
2022/12/15 08:31:36;;;;;;;15.30;8.15;;;-0.10;99.90;;;;;;4991800;28;20074;-63
2022/12/15 08:34:04;;;;;;;13.60;8.20;;;0.20;99.90;;;;;;4992937;28;20533;-63
2022/12/15 08:36:31;;;;;;;12.50;7.95;;;0.60;99.90;;;;;;4991313;28;20058;-63
2022/12/15 08:38:58;;;;;;;13.93;8.52;;;1.00;99.90;;;;;;4992797;28;20120;-63
2022/12/15 08:41:27;;;;;;;14.05;8.02;;;1.40;99.90;;;;;;4992747;28;20038;-63
2022/12/15 08:43:54;;;;;;;12.20;7.18;;;1.70;99.90;;;;;;4991942;28;20046;-63
2022/12/15 08:46:28;;;;;;;12.50;7.55;;;1.80;99.90;;;;;;4991540;28;20038;-63
2022/12/15 08:48:55;;;;;;;18.65;7.75;;;2.00;99.90;;;;;;4991435;28;20089;-63
2022/12/15 08:51:22;;;;;;;9.30;6.13;;;2.50;99.90;;;;;;4991357;28;20057;-63
2022/12/15 08:53:48;;;;;;;10.63;6.38;;;2.80;99.90;;;;;;4991002;28;20057;-63
2022/12/15 08:56:16;;;;;;;7.90;5.47;;;3.20;99.90;;;;;;4992202;28;20050;-63
2022/12/15 08:58:44;;;;;;;12.18;6.10;;;3.60;99.90;;;;;;4991077;28;20419;-65
2022/12/15 09:01:21;;;;;;;9.30;6.10;;;3.80;99.90;;;;;;4990866;28;20078;-64
2022/12/15 09:03:48;;;;;;;9.05;5.53;;;3.90;99.90;;;;;;4991262;28;20038;-64
2022/12/15 09:06:20;;;;;;;9.93;6.30;;;3.80;99.90;;;;;;4992042;28;20038;-64
2022/12/15 09:08:46;;;;;;;12.77;6.25;;;3.60;99.90;;;;;;4991013;28;20044;-64
2022/12/15 09:11:12;;;;;;;11.95;6.13;;;3.50;99.90;;;;;;4991108;28;20042;-64
2022/12/15 09:13:38;;;;;;;12.18;6.90;;;3.60;99.90;;;;;;4990584;28;20410;-64
2022/12/15 09:16:12;;;;;;;10.65;7.50;;;3.60;99.90;;;;;;4990835;28;20039;-64
2022/12/15 09:18:40;;;;;;;12.32;7.55;;;3.10;99.90;;;;;;4990778;28;20554;-64
2022/12/15 09:21:07;;;;;;;10.20;6.72;;;2.60;99.90;;;;;;4990587;28;20040;-64
2022/12/15 09:23:34;;;;;;;12.55;6.57;;;2.80;99.90;;;;;;4991640;28;20034;-64
2022/12/15 09:26:10;;;;;;;12.55;6.93;;;3.50;99.90;;;;;;4991835;28;20077;-64
2022/12/15 09:28:36;;;;;;;10.27;6.53;;;4.40;99.90;;;;;;4991462;28;20077;-64
2022/12/15 09:31:07;;;;;;;9.65;6.70;;;5.00;99.90;;;;;;5023648;28;20096;-64
2022/12/15 09:33:33;;;;;;;10.85;6.30;;;4.70;99.90;;;;;;4990700;28;20050;-64
2022/12/15 09:36:00;;;;;;;11.05;7.47;;;4.20;99.90;;;;;;4990130;28;20066;-64
2022/12/15 09:38:26;;;;;;;12.27;7.55;;;3.60;99.90;;;;;;4991847;28;20042;-64
2022/12/15 09:40:52;;;;;;;10.73;5.88;;;3.10;99.90;;;;;;5006559;28;20129;-65
2022/12/15 09:43:21;;;;;;;10.48;6.63;;;2.90;99.90;;;;;;4989719;28;20039;-64
2022/12/15 09:46:00;;;;;;;11.65;7.20;;;3.20;99.90;;;;;;4991637;28;20489;-64
2022/12/15 09:48:38;;;;;;;14.50;6.47;;;4.20;99.90;;;;;;4991640;28;20034;-64
2022/12/15 09:51:09;;;;;;;11.50;7.63;;;5.30;99.90;;;;;;4990126;28;20050;-64
2022/12/15 09:53:35;;;;;;;;;;;6.10;99.90;;;;;;4991915;28;20046;-64
2022/12/15 09:56:05;;;;;;;10.63;6.07;;;6.60;99.90;;;;;;4990462;28;19928;-64
2022/12/15 09:58:49;;;;;;;9.23;6.18;;;6.50;99.90;;;;;;4991290;28;20050;-64
2022/12/15 10:01:42;;;;;;;9.98;5.75;;;6.00;99.90;;;;;;4990122;28;20130;-64
2022/12/15 10:04:13;;;;;;;13.50;8.10;;;6.00;99.90;;;;;;4991444;28;20043;-64
2022/12/15 10:06:53;;;;;;;12.88;6.18;;;6.70;99.90;;;;;;4990046;28;20096;-65
2022/12/15 10:09:26;;;;;;;12.70;6.38;;;7.40;99.90;;;;;;4990937;28;20104;-65
2022/12/15 10:12:17;;;;;;;8.85;6.43;;;8.10;99.90;;;;;;4990452;28;20502;-65
2022/12/15 10:14:51;;;;;;;9.18;5.50;;;8.30;99.90;;;;;;4991322;28;20053;-65
2022/12/15 10:17:38;;;;;;;10.73;5.90;;;8.30;99.90;;;;;;4989798;28;20372;-65
2022/12/15 10:20:06;;;;;;;9.13;5.50;;;8.70;99.90;;;;;;4989595;28;20097;-65
2022/12/15 10:22:35;;;;;;;10.65;6.00;;;9.30;99.90;;;;;;4990295;28;20042;-65
2022/12/15 10:25:14;;;;;;;11.68;5.50;;;9.70;99.90;;;;;;4988921;28;20069;-65
2022/12/15 10:28:11;;;;;;;8.27;5.15;;;10.30;99.90;;;;;;5022068;28;20100;-66
2022/12/15 10:30:52;;;;;;;9.77;5.35;;;10.80;99.90;;;;;;4989443;28;20050;-66
2022/12/15 10:33:22;;;;;;;9.50;5.38;;;11.20;99.90;;;;;;4991028;28;20042;-66
2022/12/15 10:35:50;;;;;;;9.05;4.93;;;11.60;99.90;;;;;;4988782;28;20116;-67
2022/12/15 10:38:26;;;;;;;9.63;5.88;;;11.80;99.90;;;;;;4990525;28;20052;-67
2022/12/15 10:41:01;;;;;;;10.80;5.90;;;11.80;99.90;;;;;;4989322;28;20051;-67
2022/12/15 10:43:39;;;;;;;10.68;5.65;;;11.80;99.90;;;;;;4989161;28;20078;-67
2022/12/15 10:46:13;;;;;;;8.30;5.85;;;11.80;99.90;;;;;;4989388;28;20050;-67
2022/12/15 10:48:42;;;;;;;7.10;5.18;;;11.70;99.90;;;;;;4990574;28;20030;-68
2022/12/15 10:51:16;;;;;;;11.98;5.50;;;11.90;99.90;;;;;;4989054;28;20436;-67
2022/12/15 10:53:47;;;;;;;9.25;5.28;;;12.10;99.90;;;;;;5005362;28;20036;-68
2022/12/15 10:56:20;;;;;;;6.20;5.00;;;12.20;99.90;;;;;;4989838;28;20455;-68
2022/12/15 10:58:49;;;;;;;11.00;5.97;;;12.20;99.90;;;;;;4988973;28;20047;-69
2022/12/15 11:01:19;;;;;;;8.00;5.40;;;12.30;99.90;;;;;;4990254;28;20210;-68
2022/12/15 11:03:45;;;;;;;13.90;6.40;;;12.40;99.90;;;;;;4990003;28;20053;-68
2022/12/15 11:06:23;;;;;;;6.32;4.15;;;12.60;99.90;;;;;;4990308;28;20124;-68
2022/12/15 11:08:52;;;;;;;11.57;5.30;;;12.70;99.90;;;;;;4988873;28;20035;-66
2022/12/15 11:14:27;;;;;;;11.73;5.35;;;11.70;99.90;;;;;;4990400;28;20453;-65
2022/12/15 11:16:55;;;;;;;8.85;5.28;;;11.50;99.90;;;;;;4988852;28;20046;-65
2022/12/15 11:19:27;;;;;;;10.38;5.90;;;11.30;99.90;;;;;;4985613;28;20129;-65
2022/12/15 11:21:58;;;;;;;11.50;5.38;;;11.20;99.90;;;;;;4988028;28;20046;-65
2022/12/15 11:24:49;;;;;;;9.73;5.63;;;11.10;99.90;;;;;;4991620;28;20076;-65
2022/12/15 11:27:24;;;;;;;8.18;5.53;;;10.90;99.90;;;;;;5025651;28;20041;-64
2022/12/15 11:29:56;;;;;;;10.00;5.43;;;10.70;99.90;;;;;;4993013;28;20046;-65
2022/12/15 11:32:27;;;;;;;10.13;6.05;;;10.50;99.90;;;;;;4993741;28;20125;-65
2022/12/15 11:34:54;;;;;;;9.50;5.43;;;10.10;99.90;;;;;;4994038;28;20038;-64
2022/12/15 11:37:38;;;;;;;10.13;5.88;;;9.50;99.90;;;;;;4993909;28;20057;-65
2022/12/15 11:40:35;;;;;;;11.40;6.53;;;9.00;99.90;;;;;;5025545;28;20061;-64
2022/12/15 11:43:22;;;;;;;10.93;6.07;;;8.50;99.90;;;;;;4994034;28;20553;-65
2022/12/15 11:46:21;;;;;;;10.95;6.50;;;8.00;99.90;;;;;;4992557;28;20384;-64
2022/12/15 11:49:03;;;;;;;11.30;6.30;;;7.60;99.90;;;;;;4993230;28;20478;-65
2022/12/15 11:52:00;;;;;;;9.90;5.25;;;7.30;99.90;;;;;;5025206;28;20402;-65
2022/12/15 11:54:58;;;;;;;9.50;5.55;;;7.00;99.90;;;;;;4992413;28;20058;-64
2022/12/15 11:57:54;;;;;;;8.18;5.10;;;7.00;99.90;;;;;;4992569;28;20124;-64
2022/12/15 12:00:20;;;;;;;11.68;5.95;;;6.90;99.90;;;;;;4991817;28;20042;-64
2022/12/15 12:03:12;;;;;;;12.90;7.03;;;6.70;99.90;;;;;;4993140;28;20038;-64
2022/12/15 12:05:41;;;;;;;13.35;5.85;;;6.50;99.90;;;;;;5025105;28;20073;-64
2022/12/15 12:08:35;;;;;;;15.02;7.15;;;6.60;99.90;;;;;;5007895;28;20057;-64
2022/12/15 12:11:14;;;;;;;9.82;5.80;;;6.60;99.90;;;;;;4992184;28;20081;-64
2022/12/15 12:14:02;;;;;;;9.63;5.70;;;6.30;99.90;;;;;;4993196;28;20046;-64
2022/12/15 12:16:57;;;;;;;11.57;6.28;;;6.00;99.90;;;;;;4991826;28;20057;-64
2022/12/15 12:19:30;;;;;;;10.65;5.65;;;5.70;99.90;;;;;;5008109;28;20038;-65
2022/12/15 12:22:05;;;;;;;11.25;6.50;;;5.40;99.90;;;;;;4992779;28;20121;-64
2022/12/15 12:24:55;;;;;;;9.85;6.15;;;5.30;99.90;;;;;;4991666;28;20051;-65
2022/12/15 12:27:24;;;;;;;14.85;7.22;;;5.20;99.90;;;;;;4992958;28;20049;-64
2022/12/15 12:30:01;;;;;;;12.63;6.20;;;5.00;99.90;;;;;;4991822;28;20039;-64
2022/12/15 12:32:47;;;;;;;10.93;5.65;;;4.80;99.90;;;;;;5007730;28;20514;-64
2022/12/15 12:35:27;;;;;;;10.30;5.75;;;4.80;99.90;;;;;;4992147;28;20034;-65
2022/12/15 12:38:08;;;;;;;11.52;6.35;;;4.70;99.90;;;;;;5024280;28;20046;-64
2022/12/15 12:40:39;;;;;;;9.80;5.18;;;4.60;99.90;;;;;;4991620;28;20039;-64
2022/12/15 12:43:21;;;;;;;13.90;6.65;;;4.60;99.90;;;;;;4992754;28;20053;-64
2022/12/15 12:46:12;;;;;;;13.30;6.72;;;4.50;99.90;;;;;;4992813;28;20093;-64
2022/12/15 12:49:06;;;;;;;11.50;6.13;;;4.50;99.90;;;;;;4990960;28;20057;-64
2022/12/15 12:51:37;;;;;;;11.50;5.68;;;4.40;99.90;;;;;;4991860;28;20050;-64
2022/12/15 12:54:35;;;;;;;14.25;6.75;;;4.20;99.90;;;;;;4992483;28;20050;-63
2022/12/15 12:57:39;;;;;;;11.88;6.60;;;4.10;99.90;;;;;;4992175;28;20423;-64
2022/12/15 13:00:25;;;;;;;10.23;6.43;;;3.90;99.90;;;;;;5006167;28;20093;-64
2022/12/15 13:02:52;;;;;;;16.50;8.07;;;3.90;99.90;;;;;;4991435;28;20047;-64
2022/12/15 13:05:22;;;;;;;10.85;6.15;;;3.80;99.90;;;;;;4990770;28;20050;-64
2022/12/15 13:08:06;;;;;;;15.75;6.93;;;3.80;99.90;;;;;;4993472;28;20149;-66
2022/12/15 13:10:44;;;;;;;15.38;8.07;;;3.70;99.90;;;;;;4990979;28;20050;-66
2022/12/15 13:13:29;;;;;;;11.35;5.88;;;3.60;99.90;;;;;;4990719;28;20129;-67
2022/12/15 13:16:24;;;;;;;13.82;6.13;;;3.50;99.90;;;;;;4992350;28;20432;-66
2022/12/15 13:19:00;;;;;;;19.75;8.77;;;3.50;99.90;;;;;;4990589;28;20038;-67
2022/12/15 13:21:44;;;;;;;12.70;6.68;;;3.50;99.90;;;;;;4991884;28;20086;-66
2022/12/15 13:24:34;;;;;;;14.25;6.38;;;3.70;99.90;;;;;;4992399;28;20038;-66
2022/12/15 13:27:18;;;;;;;10.18;5.78;;;3.70;99.90;;;;;;4991913;28;20043;-67
2022/12/15 13:30:13;;;;;;;13.15;6.38;;;3.80;99.90;;;;;;4990802;28;20121;-66
2022/12/15 13:32:50;;;;;;;10.48;5.47;;;3.90;99.90;;;;;;4991678;28;20053;-67
2022/12/15 13:35:24;;;;;;;11.98;6.22;;;3.90;99.90;;;;;;4990029;28;20506;-67
2022/12/15 13:37:52;;;;;;;9.40;5.93;;;3.90;99.90;;;;;;4991429;28;20495;-67
2022/12/15 13:40:32;;;;;;;11.75;6.28;;;3.90;99.90;;;;;;4991728;28;20380;-67
2022/12/15 13:43:03;;;;;;;10.40;5.28;;;3.90;99.90;;;;;;5023448;28;20050;-67
2022/12/15 13:45:47;;;;;;;12.90;6.68;;;3.90;99.90;;;;;;4989972;28;20514;-67
2022/12/15 13:48:15;;;;;;;11.95;5.57;;;3.80;99.90;;;;;;4991200;28;20433;-67
2022/12/15 13:50:56;;;;;;;10.68;5.82;;;3.70;99.90;;;;;;4991530;28;20046;-67
2022/12/15 13:53:24;;;;;;;12.80;6.43;;;3.60;99.90;;;;;;4991139;28;20056;-66
2022/12/15 13:55:55;;;;;;;12.00;6.32;;;3.50;99.90;;;;;;4991419;28;20046;-67
2022/12/15 13:58:23;;;;;;;14.55;5.72;;;3.40;99.90;;;;;;4989982;28;20418;-67
2022/12/15 14:00:55;;;;;;;10.85;5.25;;;3.30;99.90;;;;;;4990594;28;20157;-67
2022/12/15 14:03:21;;;;;;;11.85;5.72;;;3.30;99.90;;;;;;4989756;28;20394;-67
2022/12/15 14:05:56;;;;;;;12.13;7.45;;;3.20;99.90;;;;;;4989953;28;20046;-67
2022/12/15 14:08:24;;;;;;;10.52;6.50;;;3.20;99.90;;;;;;4991251;28;20054;-67
2022/12/15 14:10:55;;;;;;;10.95;5.60;;;3.10;99.90;;;;;;4989502;28;20053;-67
2022/12/15 14:13:30;;;;;;;12.27;6.35;;;3.10;99.90;;;;;;4991171;28;20687;-67
2022/12/15 14:15:58;;;;;;;9.70;5.53;;;3.10;99.90;;;;;;4990789;28;20491;-68
2022/12/15 14:18:36;;;;;;;12.98;6.30;;;3.10;99.90;;;;;;4990441;28;20379;-67
2022/12/15 14:21:18;;;;;;;10.00;6.30;;;3.10;99.90;;;;;;4989858;28;20081;-67
2022/12/15 14:23:46;;;;;;;16.77;7.40;;;3.10;99.90;;;;;;4989353;28;20530;-67
2022/12/15 14:26:14;;;;;;;14.10;7.50;;;3.10;99.90;;;;;;4989340;28;20093;-67
2022/12/15 14:28:43;;;;;;;14.63;6.75;;;3.00;99.90;;;;;;4991132;28;20113;-68
2022/12/15 14:31:15;;;;;;;13.55;7.28;;;3.00;99.90;;;;;;5006348;28;20084;-67
2022/12/15 14:33:44;;;;;;;18.77;7.97;;;3.00;99.90;;;;;;4988918;28;20453;-68
2022/12/15 14:36:12;;;;;;;13.10;8.43;;;3.00;99.90;;;;;;4989117;28;20058;-67
2022/12/15 14:38:38;;;;;;;18.55;8.63;;;3.00;99.90;;;;;;4989159;28;20672;-67
2022/12/15 14:41:05;;;;;;;14.50;8.02;;;3.00;99.90;;;;;;4990660;28;20066;-67
2022/12/15 14:43:35;;;;;;;17.77;10.15;;;3.00;99.90;;;;;;4989181;28;20046;-67
2022/12/15 14:46:11;;;;;;;15.40;10.20;;;2.90;99.90;;;;;;5005267;28;20402;-67
2022/12/15 14:48:41;;;;;;;14.32;8.38;;;2.90;99.90;;;;;;4990342;28;20053;-67
2022/12/15 14:51:12;;;;;;;15.70;9.90;;;2.80;99.90;;;;;;4990832;28;20070;-67
2022/12/15 14:53:41;;;;;;;21.50;10.57;;;2.80;99.90;;;;;;4989210;28;20056;-67
2022/12/15 14:56:17;;;;;;;16.58;9.00;;;2.70;99.90;;;;;;4988583;28;20048;-67
2022/12/15 14:59:05;;;;;;;20.77;10.55;;;2.60;99.90;;;;;;4990455;28;20081;-67
2022/12/15 15:01:40;;;;;;;18.90;8.90;;;2.60;99.90;;;;;;4985896;28;20046;-67
2022/12/15 15:04:21;;;;;;;17.98;10.23;;;2.60;99.90;;;;;;4990443;28;20038;-67
2022/12/15 15:06:53;;;;;;;16.92;11.55;;;2.60;99.90;;;;;;4990269;28;20038;-67
2022/12/15 15:09:42;;;;;;;21.42;10.75;;;2.60;99.90;;;;;;4990468;28;20502;-67
2022/12/15 15:12:14;;;;;;;17.67;10.13;;;2.50;99.90;;;;;;5021968;28;20053;-67
2022/12/15 15:15:01;;;;;;;26.45;13.43;;;2.50;99.90;;;;;;4989135;28;20104;-67
2022/12/15 15:17:43;;;;;;;22.85;13.45;;;2.50;99.90;;;;;;5005760;28;20101;-67
2022/12/15 15:20:21;;;;;;;27.23;16.95;;;2.50;99.90;;;;;;4988865;28;20050;-67
2022/12/15 15:23:06;;;;;;;36.13;20.63;;;2.40;99.90;;;;;;5031233;28;20042;-66
2022/12/15 15:25:32;;;;;;;33.97;18.73;;;2.40;99.90;;;;;;4988880;28;20049;-66
2022/12/15 15:28:20;;;;;;;38.00;22.50;;;2.40;99.90;;;;;;5021801;28;20043;-66
2022/12/15 15:31:03;;;;;;;30.83;19.02;;;2.40;99.90;;;;;;5004868;28;20395;-66
2022/12/15 15:33:30;;;;;;;30.25;20.30;;;2.30;99.90;;;;;;4988946;28;20408;-67
2022/12/15 15:36:01;;;;;;;39.95;21.17;;;2.30;99.90;;;;;;5004536;28;20054;-66